Fowlmere Airfield


Codes: EGMA/
Name: Fowlmere Airfield
City: Cambridge
Country: United Kingdom
Elevation: 124 ft.
Wikipedia:

Photos at Fowlmere Airfield


   Photos courtesy of SpottingLog. You can add your own sightings and photos by signing up for a free trial today.



G-BYDB, 08-Oct-2023
© Richard Lewis Fuller

G-URGH, 08-Oct-2023
© Richard Lewis Fuller

G-BEUF, 08-Oct-2023
© Richard Lewis Fuller

G-GGBD, 08-Oct-2023
© Richard Lewis Fuller

G-BKBP, 08-Oct-2023
© Richard Lewis Fuller

G-EGEG, 08-Oct-2023
© Richard Lewis Fuller

G-SPUN, 08-Oct-2023
© Richard Lewis Fuller

G-BVWZ, 08-Oct-2023
© Richard Lewis Fuller

G-AZUM, 08-Oct-2023
© Richard Lewis Fuller

N559C, 08-Oct-2023
© Richard Lewis Fuller

G-EGLT, 08-Oct-2023
© Richard Lewis Fuller


Weather at Fowlmere Airfield


Time (UTC)DescriptionTempratureWindCloud coverageVisibilityPressureHumidity
18-Apr-2024 00:00Scattered Clouds5°C13 mph, N42%10000m1017hPa89%
18-Apr-2024 03:00Few Clouds3°C7 mph, N19%10000m1020hPa93%
18-Apr-2024 06:00Scattered Clouds2°C7 mph, NW26%10000m1023hPa96%
18-Apr-2024 09:00Broken Clouds7°C7 mph, NW71%10000m1024hPa79%
18-Apr-2024 12:00Overcast Clouds10°C7 mph, W85%10000m1023hPa58%
18-Apr-2024 15:00Overcast Clouds11°C13 mph, W91%10000m1022hPa57%
18-Apr-2024 18:00Overcast Clouds9°C16 mph, W96%10000m1020hPa74%
18-Apr-2024 21:00Light Rain8°C16 mph, W100%10000m1019hPa93%
19-Apr-2024 00:00Light Rain8°C18 mph, W100%10000m1017hPa92%
19-Apr-2024 03:00Light Rain9°C16 mph, NW100%10000m1015hPa92%
19-Apr-2024 06:00Light Rain8°C18 mph, NW98%10000m1016hPa85%
19-Apr-2024 09:00Light Rain10°C18 mph, NW30%10000m1016hPa79%
19-Apr-2024 12:00Light Rain10°C18 mph, N56%10000m1017hPa78%
19-Apr-2024 15:00Light Rain10°C18 mph, N82%10000m1019hPa63%
19-Apr-2024 18:00Scattered Clouds8°C13 mph, N48%10000m1022hPa70%
19-Apr-2024 21:00Few Clouds5°C13 mph, N18%10000m1025hPa73%
20-Apr-2024 00:00Few Clouds2°C11 mph, NW13%10000m1026hPa84%
20-Apr-2024 03:00Clear Sky2°C11 mph, NW7%10000m1027hPa87%
20-Apr-2024 06:00Clear Sky2°C11 mph, NW10%10000m1029hPa86%
20-Apr-2024 09:00Broken Clouds6°C13 mph, N74%10000m1030hPa67%
20-Apr-2024 12:00Overcast Clouds7°C11 mph, N86%10000m1031hPa68%
20-Apr-2024 15:00Overcast Clouds9°C11 mph, N98%10000m1030hPa63%
20-Apr-2024 18:00Overcast Clouds8°C7 mph, NE88%10000m1030hPa76%
20-Apr-2024 21:00Few Clouds4°C4 mph, N22%10000m1032hPa91%
21-Apr-2024 00:00Few Clouds3°C7 mph, NW21%10000m1032hPa95%
21-Apr-2024 03:00Broken Clouds3°C7 mph, NW68%10000m1031hPa92%
21-Apr-2024 06:00Broken Clouds5°C9 mph, N83%10000m1031hPa88%
21-Apr-2024 09:00Overcast Clouds7°C13 mph, N100%10000m1031hPa83%
21-Apr-2024 12:00Overcast Clouds11°C16 mph, N92%10000m1030hPa57%
21-Apr-2024 15:00Few Clouds11°C16 mph, N19%10000m1030hPa59%
21-Apr-2024 18:00Scattered Clouds7°C13 mph, NE33%10000m1031hPa77%
21-Apr-2024 21:00Overcast Clouds6°C9 mph, NE100%10000m1032hPa66%
22-Apr-2024 00:00Broken Clouds2°C7 mph, NE65%10000m1033hPa93%
22-Apr-2024 03:00Clear Sky2°C7 mph, N10%10000m1033hPa93%
22-Apr-2024 06:00Clear Sky3°C7 mph, N8%10000m1032hPa91%
22-Apr-2024 09:00Clear Sky8°C16 mph, NE8%10000m1031hPa66%
22-Apr-2024 12:00Light Rain11°C16 mph, NE50%10000m1030hPa53%
22-Apr-2024 15:00Light Rain10°C16 mph, NE96%10000m1029hPa56%
22-Apr-2024 18:00Broken Clouds7°C13 mph, NE75%10000m1029hPa69%
22-Apr-2024 21:00Few Clouds2°C7 mph, N11%10000m1030hPa86%